sensor_id;sensor_type;location;lat;lon;timestamp;temperature;humidity
2999;DHT22;1509;51.964;7.628;2023-02-23T00:01:36;9.60;99.90
2999;DHT22;1509;51.964;7.628;2023-02-23T00:04:02;9.60;99.90
2999;DHT22;1509;51.964;7.628;2023-02-23T00:06:29;9.60;99.90
2999;DHT22;1509;51.964;7.628;2023-02-23T00:08:55;9.50;99.90
2999;DHT22;1509;51.964;7.628;2023-02-23T00:11:22;9.60;99.90
2999;DHT22;1509;51.964;7.628;2023-02-23T00:13:49;9.70;99.90
2999;DHT22;1509;51.964;7.628;2023-02-23T00:16:18;9.70;99.90
2999;DHT22;1509;51.964;7.628;2023-02-23T00:18:46;9.70;99.90
2999;DHT22;1509;51.964;7.628;2023-02-23T00:21:18;9.70;99.90
2999;DHT22;1509;51.964;7.628;2023-02-23T00:23:48;9.70;99.90
2999;DHT22;1509;51.964;7.628;2023-02-23T00:26:14;9.80;99.90
2999;DHT22;1509;51.964;7.628;2023-02-23T00:28:41;9.80;99.90
2999;DHT22;1509;51.964;7.628;2023-02-23T00:31:08;9.80;99.90
2999;DHT22;1509;51.964;7.628;2023-02-23T00:33:35;9.80;99.90
2999;DHT22;1509;51.964;7.628;2023-02-23T00:36:12;9.80;99.90
2999;DHT22;1509;51.964;7.628;2023-02-23T00:38:39;9.80;99.90
2999;DHT22;1509;51.964;7.628;2023-02-23T00:43:34;9.70;99.90
2999;DHT22;1509;51.964;7.628;2023-02-23T00:46:00;9.80;99.90
2999;DHT22;1509;51.964;7.628;2023-02-23T00:48:31;10.00;99.90
2999;DHT22;1509;51.964;7.628;2023-02-23T00:51:01;9.70;99.90
2999;DHT22;1509;51.964;7.628;2023-02-23T00:53:27;9.60;99.90
2999;DHT22;1509;51.964;7.628;2023-02-23T00:55:55;9.60;99.90
2999;DHT22;1509;51.964;7.628;2023-02-23T00:58:24;9.60;99.90
2999;DHT22;1509;51.964;7.628;2023-02-23T01:00:51;9.60;99.90
2999;DHT22;1509;51.964;7.628;2023-02-23T01:03:19;9.50;99.90
2999;DHT22;1509;51.964;7.628;2023-02-23T01:05:45;9.50;99.90
2999;DHT22;1509;51.964;7.628;2023-02-23T01:08:14;9.60;99.90
2999;DHT22;1509;51.964;7.628;2023-02-23T01:10:41;9.60;99.90
2999;DHT22;1509;51.964;7.628;2023-02-23T01:13:08;9.50;99.90
2999;DHT22;1509;51.964;7.628;2023-02-23T01:15:39;9.60;99.90
2999;DHT22;1509;51.964;7.628;2023-02-23T01:18:06;9.60;99.90
2999;DHT22;1509;51.964;7.628;2023-02-23T01:20:33;9.60;99.90
2999;DHT22;1509;51.964;7.628;2023-02-23T01:23:03;9.60;99.90
2999;DHT22;1509;51.964;7.628;2023-02-23T01:25:29;9.60;99.90
2999;DHT22;1509;51.964;7.628;2023-02-23T01:27:54;9.60;99.90
2999;DHT22;1509;51.964;7.628;2023-02-23T01:30:20;9.60;99.90
2999;DHT22;1509;51.964;7.628;2023-02-23T01:32:46;9.60;99.90
2999;DHT22;1509;51.964;7.628;2023-02-23T01:35:12;9.50;99.90
2999;DHT22;1509;51.964;7.628;2023-02-23T01:37:41;9.50;99.90
2999;DHT22;1509;51.964;7.628;2023-02-23T01:40:19;9.60;99.90
2999;DHT22;1509;51.964;7.628;2023-02-23T01:42:57;9.60;99.90
2999;DHT22;1509;51.964;7.628;2023-02-23T01:45:27;9.50;99.90
2999;DHT22;1509;51.964;7.628;2023-02-23T01:47:57;9.50;99.90
2999;DHT22;1509;51.964;7.628;2023-02-23T01:50:27;9.40;99.90
2999;DHT22;1509;51.964;7.628;2023-02-23T01:52:55;9.50;99.90
2999;DHT22;1509;51.964;7.628;2023-02-23T01:55:23;9.50;99.90
2999;DHT22;1509;51.964;7.628;2023-02-23T01:57:54;9.40;99.90
2999;DHT22;1509;51.964;7.628;2023-02-23T02:00:22;9.50;99.90
2999;DHT22;1509;51.964;7.628;2023-02-23T02:02:50;9.50;99.90
2999;DHT22;1509;51.964;7.628;2023-02-23T02:05:17;9.40;99.90
2999;DHT22;1509;51.964;7.628;2023-02-23T02:07:47;9.50;99.90
2999;DHT22;1509;51.964;7.628;2023-02-23T02:10:13;9.60;99.90
2999;DHT22;1509;51.964;7.628;2023-02-23T02:12:41;9.30;99.90
2999;DHT22;1509;51.964;7.628;2023-02-23T02:15:09;9.40;99.90
2999;DHT22;1509;51.964;7.628;2023-02-23T02:18:07;9.40;99.90
2999;DHT22;1509;51.964;7.628;2023-02-23T02:46:14;9.20;99.90
2999;DHT22;1509;51.964;7.628;2023-02-23T02:51:34;9.60;99.90
2999;DHT22;1509;51.964;7.628;2023-02-23T02:54:02;9.30;99.90
2999;DHT22;1509;51.964;7.628;2023-02-23T02:56:33;9.30;99.90
2999;DHT22;1509;51.964;7.628;2023-02-23T02:59:11;9.30;99.90
2999;DHT22;1509;51.964;7.628;2023-02-23T03:01:56;9.30;99.90
2999;DHT22;1509;51.964;7.628;2023-02-23T03:04:41;9.20;99.90
2999;DHT22;1509;51.964;7.628;2023-02-23T03:07:35;9.20;99.90
2999;DHT22;1509;51.964;7.628;2023-02-23T03:14:00;9.20;99.90
2999;DHT22;1509;51.964;7.628;2023-02-23T03:19:55;9.20;99.90
2999;DHT22;1509;51.964;7.628;2023-02-23T03:22:55;9.10;99.90
2999;DHT22;1509;51.964;7.628;2023-02-23T03:29:06;9.20;99.90
2999;DHT22;1509;51.964;7.628;2023-02-23T03:32:04;9.10;99.90
2999;DHT22;1509;51.964;7.628;2023-02-23T03:35:00;9.20;99.90
2999;DHT22;1509;51.964;7.628;2023-02-23T03:40:40;9.20;99.90
2999;DHT22;1509;51.964;7.628;2023-02-23T03:43:37;9.30;99.90
2999;DHT22;1509;51.964;7.628;2023-02-23T03:46:26;9.20;99.90
2999;DHT22;1509;51.964;7.628;2023-02-23T03:49:12;9.20;99.90
2999;DHT22;1509;51.964;7.628;2023-02-23T03:52:04;9.20;99.90
2999;DHT22;1509;51.964;7.628;2023-02-23T03:54:55;9.20;99.90
2999;DHT22;1509;51.964;7.628;2023-02-23T03:57:40;9.20;99.90
2999;DHT22;1509;51.964;7.628;2023-02-23T04:00:32;9.20;99.90
2999;DHT22;1509;51.964;7.628;2023-02-23T04:03:18;9.20;99.90
2999;DHT22;1509;51.964;7.628;2023-02-23T04:06:07;9.20;99.90
2999;DHT22;1509;51.964;7.628;2023-02-23T04:08:55;9.20;99.90
2999;DHT22;1509;51.964;7.628;2023-02-23T04:15:12;9.10;99.90
2999;DHT22;1509;51.964;7.628;2023-02-23T04:17:40;9.10;99.90
2999;DHT22;1509;51.964;7.628;2023-02-23T04:20:08;9.00;99.90
2999;DHT22;1509;51.964;7.628;2023-02-23T04:22:35;9.00;99.90
2999;DHT22;1509;51.964;7.628;2023-02-23T04:25:00;9.00;99.90
2999;DHT22;1509;51.964;7.628;2023-02-23T04:27:26;9.00;99.90
2999;DHT22;1509;51.964;7.628;2023-02-23T04:29:52;9.00;99.90
2999;DHT22;1509;51.964;7.628;2023-02-23T04:32:18;9.10;99.90
2999;DHT22;1509;51.964;7.628;2023-02-23T04:34:45;9.10;99.90
2999;DHT22;1509;51.964;7.628;2023-02-23T04:37:11;9.00;99.90
2999;DHT22;1509;51.964;7.628;2023-02-23T04:39:37;9.00;99.90
2999;DHT22;1509;51.964;7.628;2023-02-23T04:42:03;9.00;99.90
2999;DHT22;1509;51.964;7.628;2023-02-23T04:44:29;9.00;99.90
2999;DHT22;1509;51.964;7.628;2023-02-23T04:46:55;9.00;99.90
2999;DHT22;1509;51.964;7.628;2023-02-23T04:49:22;8.90;99.90
2999;DHT22;1509;51.964;7.628;2023-02-23T04:51:47;8.90;99.90
2999;DHT22;1509;51.964;7.628;2023-02-23T04:54:13;8.90;99.90
2999;DHT22;1509;51.964;7.628;2023-02-23T04:56:38;8.90;99.90
2999;DHT22;1509;51.964;7.628;2023-02-23T04:59:04;9.30;99.90
2999;DHT22;1509;51.964;7.628;2023-02-23T05:01:30;9.30;99.90
2999;DHT22;1509;51.964;7.628;2023-02-23T05:03:57;9.20;99.90
2999;DHT22;1509;51.964;7.628;2023-02-23T05:06:24;9.00;99.90
2999;DHT22;1509;51.964;7.628;2023-02-23T05:08:50;8.90;99.90
2999;DHT22;1509;51.964;7.628;2023-02-23T05:11:15;8.90;99.90
2999;DHT22;1509;51.964;7.628;2023-02-23T05:13:44;9.10;99.90
2999;DHT22;1509;51.964;7.628;2023-02-23T05:16:09;8.90;99.90
2999;DHT22;1509;51.964;7.628;2023-02-23T05:18:35;9.20;99.90
2999;DHT22;1509;51.964;7.628;2023-02-23T05:21:05;9.00;99.90
2999;DHT22;1509;51.964;7.628;2023-02-23T05:23:34;9.00;99.90
2999;DHT22;1509;51.964;7.628;2023-02-23T05:26:09;9.00;99.90
2999;DHT22;1509;51.964;7.628;2023-02-23T05:28:36;9.00;99.90
2999;DHT22;1509;51.964;7.628;2023-02-23T05:31:02;8.90;99.90
2999;DHT22;1509;51.964;7.628;2023-02-23T05:33:28;8.90;99.90
2999;DHT22;1509;51.964;7.628;2023-02-23T05:35:54;8.90;99.90
2999;DHT22;1509;51.964;7.628;2023-02-23T05:38:20;9.10;99.90
2999;DHT22;1509;51.964;7.628;2023-02-23T05:40:46;9.00;99.90
2999;DHT22;1509;51.964;7.628;2023-02-23T05:43:12;8.90;99.90
2999;DHT22;1509;51.964;7.628;2023-02-23T05:45:42;9.20;99.90
2999;DHT22;1509;51.964;7.628;2023-02-23T05:48:09;8.90;99.90
2999;DHT22;1509;51.964;7.628;2023-02-23T05:50:35;8.90;99.90
2999;DHT22;1509;51.964;7.628;2023-02-23T05:53:01;8.90;99.90
2999;DHT22;1509;51.964;7.628;2023-02-23T05:55:27;9.10;99.90
2999;DHT22;1509;51.964;7.628;2023-02-23T05:57:56;8.90;99.90
2999;DHT22;1509;51.964;7.628;2023-02-23T06:00:21;8.90;99.90
2999;DHT22;1509;51.964;7.628;2023-02-23T06:02:47;8.90;99.90
2999;DHT22;1509;51.964;7.628;2023-02-23T06:05:16;8.80;99.90
2999;DHT22;1509;51.964;7.628;2023-02-23T06:07:42;8.80;99.90
2999;DHT22;1509;51.964;7.628;2023-02-23T06:10:08;8.80;99.90
2999;DHT22;1509;51.964;7.628;2023-02-23T06:12:34;8.80;99.90
2999;DHT22;1509;51.964;7.628;2023-02-23T06:14:59;8.90;99.90
2999;DHT22;1509;51.964;7.628;2023-02-23T06:17:25;8.90;99.90
2999;DHT22;1509;51.964;7.628;2023-02-23T06:19:50;8.90;99.90
2999;DHT22;1509;51.964;7.628;2023-02-23T06:22:16;8.90;99.90
2999;DHT22;1509;51.964;7.628;2023-02-23T06:24:42;9.10;99.90
2999;DHT22;1509;51.964;7.628;2023-02-23T06:27:09;8.90;99.90
2999;DHT22;1509;51.964;7.628;2023-02-23T06:29:35;8.80;99.90
2999;DHT22;1509;51.964;7.628;2023-02-23T06:32:02;8.80;99.90
2999;DHT22;1509;51.964;7.628;2023-02-23T06:34:28;8.70;99.90
2999;DHT22;1509;51.964;7.628;2023-02-23T06:36:53;9.00;99.90
2999;DHT22;1509;51.964;7.628;2023-02-23T06:39:19;8.60;99.90
2999;DHT22;1509;51.964;7.628;2023-02-23T06:41:44;8.70;99.90
2999;DHT22;1509;51.964;7.628;2023-02-23T06:44:10;8.90;99.90
2999;DHT22;1509;51.964;7.628;2023-02-23T06:46:36;8.70;99.90
2999;DHT22;1509;51.964;7.628;2023-02-23T06:49:02;8.70;99.90
2999;DHT22;1509;51.964;7.628;2023-02-23T06:51:28;8.70;99.90
2999;DHT22;1509;51.964;7.628;2023-02-23T06:53:54;8.80;99.90
2999;DHT22;1509;51.964;7.628;2023-02-23T06:56:19;8.70;99.90
2999;DHT22;1509;51.964;7.628;2023-02-23T06:58:45;9.00;99.90
2999;DHT22;1509;51.964;7.628;2023-02-23T07:01:12;8.80;99.90
2999;DHT22;1509;51.964;7.628;2023-02-23T07:03:38;8.70;99.90
2999;DHT22;1509;51.964;7.628;2023-02-23T07:06:04;8.60;99.90
2999;DHT22;1509;51.964;7.628;2023-02-23T07:08:30;8.80;99.90
2999;DHT22;1509;51.964;7.628;2023-02-23T07:11:05;8.80;99.90
2999;DHT22;1509;51.964;7.628;2023-02-23T07:13:31;8.80;99.90
2999;DHT22;1509;51.964;7.628;2023-02-23T07:15:57;8.70;99.90
2999;DHT22;1509;51.964;7.628;2023-02-23T07:18:22;8.80;99.90
2999;DHT22;1509;51.964;7.628;2023-02-23T07:20:49;8.80;99.90
2999;DHT22;1509;51.964;7.628;2023-02-23T07:23:16;9.00;99.90
2999;DHT22;1509;51.964;7.628;2023-02-23T07:25:42;8.80;99.90
2999;DHT22;1509;51.964;7.628;2023-02-23T07:28:08;8.80;99.90
2999;DHT22;1509;51.964;7.628;2023-02-23T07:30:33;8.80;99.90
2999;DHT22;1509;51.964;7.628;2023-02-23T07:32:59;8.90;99.90
2999;DHT22;1509;51.964;7.628;2023-02-23T07:35:25;9.00;99.90
2999;DHT22;1509;51.964;7.628;2023-02-23T07:37:50;8.80;99.90
2999;DHT22;1509;51.964;7.628;2023-02-23T07:40:16;8.70;99.90
2999;DHT22;1509;51.964;7.628;2023-02-23T07:42:43;8.70;99.90
2999;DHT22;1509;51.964;7.628;2023-02-23T07:45:10;9.10;99.90
2999;DHT22;1509;51.964;7.628;2023-02-23T07:47:36;8.70;99.90
2999;DHT22;1509;51.964;7.628;2023-02-23T07:50:04;8.90;99.90
2999;DHT22;1509;51.964;7.628;2023-02-23T07:52:38;8.70;99.90
2999;DHT22;1509;51.964;7.628;2023-02-23T07:55:05;8.70;99.90
2999;DHT22;1509;51.964;7.628;2023-02-23T07:57:31;8.70;99.90
2999;DHT22;1509;51.964;7.628;2023-02-23T07:59:57;8.70;99.90
2999;DHT22;1509;51.964;7.628;2023-02-23T08:02:23;8.70;99.90
2999;DHT22;1509;51.964;7.628;2023-02-23T08:04:49;8.70;99.90
2999;DHT22;1509;51.964;7.628;2023-02-23T08:07:15;8.70;99.90
2999;DHT22;1509;51.964;7.628;2023-02-23T08:09:41;8.70;99.90
2999;DHT22;1509;51.964;7.628;2023-02-23T08:12:06;8.70;99.90
2999;DHT22;1509;51.964;7.628;2023-02-23T08:14:32;8.70;99.90
2999;DHT22;1509;51.964;7.628;2023-02-23T08:17:01;8.70;99.90
2999;DHT22;1509;51.964;7.628;2023-02-23T08:19:27;8.80;99.90
2999;DHT22;1509;51.964;7.628;2023-02-23T08:21:53;9.10;99.90
2999;DHT22;1509;51.964;7.628;2023-02-23T08:24:18;8.80;99.90
2999;DHT22;1509;51.964;7.628;2023-02-23T08:26:47;8.90;99.90
2999;DHT22;1509;51.964;7.628;2023-02-23T08:29:15;8.60;99.90
2999;DHT22;1509;51.964;7.628;2023-02-23T08:31:40;8.60;99.90
2999;DHT22;1509;51.964;7.628;2023-02-23T08:34:06;8.70;99.90
2999;DHT22;1509;51.964;7.628;2023-02-23T08:36:34;8.70;99.90
2999;DHT22;1509;51.964;7.628;2023-02-23T08:39:00;8.80;99.90
2999;DHT22;1509;51.964;7.628;2023-02-23T08:41:32;8.50;99.90
2999;DHT22;1509;51.964;7.628;2023-02-23T08:43:58;8.50;99.90
2999;DHT22;1509;51.964;7.628;2023-02-23T08:46:23;8.50;99.90
2999;DHT22;1509;51.964;7.628;2023-02-23T08:48:49;8.80;99.90
2999;DHT22;1509;51.964;7.628;2023-02-23T08:51:15;8.50;99.90
2999;DHT22;1509;51.964;7.628;2023-02-23T08:53:41;8.40;99.90
2999;DHT22;1509;51.964;7.628;2023-02-23T08:56:07;8.50;99.90
2999;DHT22;1509;51.964;7.628;2023-02-23T08:58:34;8.50;99.90
2999;DHT22;1509;51.964;7.628;2023-02-23T09:01:00;8.60;99.90
2999;DHT22;1509;51.964;7.628;2023-02-23T09:03:27;8.50;99.90
2999;DHT22;1509;51.964;7.628;2023-02-23T09:05:56;8.70;99.90
2999;DHT22;1509;51.964;7.628;2023-02-23T09:08:22;8.60;99.90
2999;DHT22;1509;51.964;7.628;2023-02-23T09:10:48;8.70;99.90
2999;DHT22;1509;51.964;7.628;2023-02-23T09:13:14;8.60;99.90
2999;DHT22;1509;51.964;7.628;2023-02-23T09:15:40;8.90;99.90
2999;DHT22;1509;51.964;7.628;2023-02-23T09:18:08;9.00;99.90
2999;DHT22;1509;51.964;7.628;2023-02-23T09:20:35;8.70;99.90
2999;DHT22;1509;51.964;7.628;2023-02-23T09:23:00;8.70;99.90
2999;DHT22;1509;51.964;7.628;2023-02-23T09:25:26;8.70;99.90
2999;DHT22;1509;51.964;7.628;2023-02-23T09:27:55;8.80;99.90
2999;DHT22;1509;51.964;7.628;2023-02-23T09:30:22;8.80;99.90
2999;DHT22;1509;51.964;7.628;2023-02-23T09:32:49;8.80;99.90
2999;DHT22;1509;51.964;7.628;2023-02-23T09:35:17;8.70;99.90
2999;DHT22;1509;51.964;7.628;2023-02-23T09:37:47;8.70;99.90
2999;DHT22;1509;51.964;7.628;2023-02-23T09:40:16;8.60;99.90
2999;DHT22;1509;51.964;7.628;2023-02-23T09:45:30;8.60;99.90
2999;DHT22;1509;51.964;7.628;2023-02-23T09:50:30;8.70;99.90
2999;DHT22;1509;51.964;7.628;2023-02-23T09:55:44;8.60;99.90
2999;DHT22;1509;51.964;7.628;2023-02-23T09:58:21;8.60;99.90
2999;DHT22;1509;51.964;7.628;2023-02-23T10:03:49;8.70;99.90
2999;DHT22;1509;51.964;7.628;2023-02-23T10:06:19;8.50;99.90
2999;DHT22;1509;51.964;7.628;2023-02-23T10:19:55;8.60;99.90
2999;DHT22;1509;51.964;7.628;2023-02-23T10:22:23;8.50;99.90
2999;DHT22;1509;51.964;7.628;2023-02-23T10:24:55;8.40;99.90
2999;DHT22;1509;51.964;7.628;2023-02-23T10:27:40;8.30;99.90
2999;DHT22;1509;51.964;7.628;2023-02-23T10:30:28;8.70;99.90
2999;DHT22;1509;51.964;7.628;2023-02-23T10:35:27;8.40;99.90
2999;DHT22;1509;51.964;7.628;2023-02-23T10:37:54;8.40;99.90
2999;DHT22;1509;51.964;7.628;2023-02-23T10:40:22;8.40;99.90
2999;DHT22;1509;51.964;7.628;2023-02-23T10:42:50;8.50;99.90
2999;DHT22;1509;51.964;7.628;2023-02-23T10:45:21;8.60;99.90
2999;DHT22;1509;51.964;7.628;2023-02-23T10:48:00;8.60;99.90
2999;DHT22;1509;51.964;7.628;2023-02-23T10:50:29;8.50;99.90
2999;DHT22;1509;51.964;7.628;2023-02-23T10:53:11;8.60;99.90
2999;DHT22;1509;51.964;7.628;2023-02-23T10:55:43;8.50;99.90
2999;DHT22;1509;51.964;7.628;2023-02-23T10:58:15;8.50;99.90
2999;DHT22;1509;51.964;7.628;2023-02-23T11:01:00;8.40;99.90
2999;DHT22;1509;51.964;7.628;2023-02-23T11:03:29;8.40;99.90
2999;DHT22;1509;51.964;7.628;2023-02-23T11:05:56;8.40;99.90
2999;DHT22;1509;51.964;7.628;2023-02-23T11:08:26;8.40;99.90
2999;DHT22;1509;51.964;7.628;2023-02-23T11:10:56;8.40;99.90
2999;DHT22;1509;51.964;7.628;2023-02-23T11:13:25;8.30;99.90
2999;DHT22;1509;51.964;7.628;2023-02-23T11:16:11;8.60;99.90
2999;DHT22;1509;51.964;7.628;2023-02-23T11:18:41;8.20;99.90
2999;DHT22;1509;51.964;7.628;2023-02-23T11:21:12;8.00;99.90
2999;DHT22;1509;51.964;7.628;2023-02-23T11:23:41;8.50;99.90
2999;DHT22;1509;51.964;7.628;2023-02-23T11:26:30;8.20;99.90
2999;DHT22;1509;51.964;7.628;2023-02-23T11:29:03;7.90;99.90
2999;DHT22;1509;51.964;7.628;2023-02-23T11:31:36;8.10;99.90
2999;DHT22;1509;51.964;7.628;2023-02-23T11:34:03;8.10;99.90
2999;DHT22;1509;51.964;7.628;2023-02-23T11:36:35;8.10;99.90
2999;DHT22;1509;51.964;7.628;2023-02-23T11:41:26;8.10;99.90
2999;DHT22;1509;51.964;7.628;2023-02-23T11:43:59;8.10;99.90
2999;DHT22;1509;51.964;7.628;2023-02-23T11:46:28;8.40;99.90
2999;DHT22;1509;51.964;7.628;2023-02-23T11:49:06;8.10;99.90
2999;DHT22;1509;51.964;7.628;2023-02-23T11:51:38;8.20;99.90
2999;DHT22;1509;51.964;7.628;2023-02-23T11:54:06;8.10;99.90
2999;DHT22;1509;51.964;7.628;2023-02-23T11:56:36;8.00;99.90
2999;DHT22;1509;51.964;7.628;2023-02-23T11:59:06;8.10;99.90
2999;DHT22;1509;51.964;7.628;2023-02-23T12:01:44;8.10;99.90
2999;DHT22;1509;51.964;7.628;2023-02-23T12:04:33;8.20;99.90
2999;DHT22;1509;51.964;7.628;2023-02-23T12:07:26;8.10;99.90
2999;DHT22;1509;51.964;7.628;2023-02-23T12:10:11;8.10;99.90
2999;DHT22;1509;51.964;7.628;2023-02-23T12:13:19;8.10;99.90
2999;DHT22;1509;51.964;7.628;2023-02-23T12:16:07;8.10;99.90
2999;DHT22;1509;51.964;7.628;2023-02-23T12:18:54;8.10;99.90
2999;DHT22;1509;51.964;7.628;2023-02-23T12:27:27;8.10;99.90
2999;DHT22;1509;51.964;7.628;2023-02-23T12:30:04;8.20;99.90
2999;DHT22;1509;51.964;7.628;2023-02-23T12:32:45;8.20;99.90
2999;DHT22;1509;51.964;7.628;2023-02-23T12:35:15;8.20;99.90
2999;DHT22;1509;51.964;7.628;2023-02-23T12:37:50;8.20;99.90
2999;DHT22;1509;51.964;7.628;2023-02-23T12:40:31;8.20;99.90
2999;DHT22;1509;51.964;7.628;2023-02-23T12:43:06;8.30;99.90
2999;DHT22;1509;51.964;7.628;2023-02-23T12:46:09;8.50;99.90
2999;DHT22;1509;51.964;7.628;2023-02-23T12:49:12;8.10;99.90
2999;DHT22;1509;51.964;7.628;2023-02-23T12:52:01;8.20;99.90
2999;DHT22;1509;51.964;7.628;2023-02-23T12:54:34;8.20;99.90
2999;DHT22;1509;51.964;7.628;2023-02-23T13:05:19;8.10;99.90
2999;DHT22;1509;51.964;7.628;2023-02-23T13:07:56;8.10;99.90
2999;DHT22;1509;51.964;7.628;2023-02-23T13:10:49;8.00;99.90
2999;DHT22;1509;51.964;7.628;2023-02-23T13:13:22;8.10;99.90
2999;DHT22;1509;51.964;7.628;2023-02-23T13:16:20;8.10;99.90
2999;DHT22;1509;51.964;7.628;2023-02-23T13:18:49;8.10;99.90
2999;DHT22;1509;51.964;7.628;2023-02-23T13:21:25;8.20;99.90
2999;DHT22;1509;51.964;7.628;2023-02-23T13:24:13;8.10;99.90
2999;DHT22;1509;51.964;7.628;2023-02-23T13:32:08;8.00;99.90
2999;DHT22;1509;51.964;7.628;2023-02-23T13:34:43;8.50;99.90
2999;DHT22;1509;51.964;7.628;2023-02-23T13:37:12;8.20;99.90
2999;DHT22;1509;51.964;7.628;2023-02-23T13:42:18;8.30;99.90
2999;DHT22;1509;51.964;7.628;2023-02-23T13:47:31;8.10;99.90
2999;DHT22;1509;51.964;7.628;2023-02-23T13:52:53;8.10;99.90
2999;DHT22;1509;51.964;7.628;2023-02-23T13:58:14;8.40;99.90
2999;DHT22;1509;51.964;7.628;2023-02-23T14:00:41;8.00;99.90
2999;DHT22;1509;51.964;7.628;2023-02-23T14:03:21;7.90;99.90
2999;DHT22;1509;51.964;7.628;2023-02-23T14:05:51;8.00;99.90
2999;DHT22;1509;51.964;7.628;2023-02-23T14:08:37;8.00;99.90
2999;DHT22;1509;51.964;7.628;2023-02-23T14:11:04;7.90;99.90
2999;DHT22;1509;51.964;7.628;2023-02-23T14:13:32;7.90;99.90
2999;DHT22;1509;51.964;7.628;2023-02-23T14:16:17;7.90;99.90
2999;DHT22;1509;51.964;7.628;2023-02-23T14:19:03;8.00;99.90
2999;DHT22;1509;51.964;7.628;2023-02-23T14:30:05;7.80;99.90
2999;DHT22;1509;51.964;7.628;2023-02-23T14:32:28;7.80;99.90
2999;DHT22;1509;51.964;7.628;2023-02-23T14:34:57;7.80;99.90
2999;DHT22;1509;51.964;7.628;2023-02-23T14:39:54;7.80;99.90
2999;DHT22;1509;51.964;7.628;2023-02-23T14:42:25;7.80;99.90
2999;DHT22;1509;51.964;7.628;2023-02-23T14:44:55;7.50;99.90
2999;DHT22;1509;51.964;7.628;2023-02-23T14:47:25;7.80;99.90
2999;DHT22;1509;51.964;7.628;2023-02-23T14:49:57;7.70;99.90
2999;DHT22;1509;51.964;7.628;2023-02-23T14:52:34;7.90;99.90
2999;DHT22;1509;51.964;7.628;2023-02-23T14:57:36;7.70;99.90
2999;DHT22;1509;51.964;7.628;2023-02-23T15:00:13;7.70;99.90
2999;DHT22;1509;51.964;7.628;2023-02-23T15:02:52;7.90;99.90
2999;DHT22;1509;51.964;7.628;2023-02-23T15:05:28;8.10;99.90
2999;DHT22;1509;51.964;7.628;2023-02-23T15:07:58;7.80;99.90
2999;DHT22;1509;51.964;7.628;2023-02-23T15:10:29;7.70;99.90
2999;DHT22;1509;51.964;7.628;2023-02-23T15:12:55;7.70;99.90
2999;DHT22;1509;51.964;7.628;2023-02-23T15:15:24;7.70;99.90
2999;DHT22;1509;51.964;7.628;2023-02-23T15:17:57;7.70;99.90
2999;DHT22;1509;51.964;7.628;2023-02-23T15:20:30;7.60;99.90
2999;DHT22;1509;51.964;7.628;2023-02-23T15:22:59;7.70;99.90
2999;DHT22;1509;51.964;7.628;2023-02-23T15:25:37;7.50;99.90
2999;DHT22;1509;51.964;7.628;2023-02-23T15:28:24;7.60;99.90
2999;DHT22;1509;51.964;7.628;2023-02-23T15:30:53;7.60;99.90
2999;DHT22;1509;51.964;7.628;2023-02-23T15:33:20;7.70;99.90
2999;DHT22;1509;51.964;7.628;2023-02-23T15:38:49;7.70;99.90
2999;DHT22;1509;51.964;7.628;2023-02-23T15:41:36;7.70;99.90
2999;DHT22;1509;51.964;7.628;2023-02-23T15:44:13;7.60;99.90
2999;DHT22;1509;51.964;7.628;2023-02-23T15:46:41;7.80;99.90
2999;DHT22;1509;51.964;7.628;2023-02-23T15:49:12;7.60;99.90
2999;DHT22;1509;51.964;7.628;2023-02-23T15:51:47;7.60;99.90
2999;DHT22;1509;51.964;7.628;2023-02-23T15:56:43;7.60;99.90
2999;DHT22;1509;51.964;7.628;2023-02-23T15:59:25;7.60;99.90
2999;DHT22;1509;51.964;7.628;2023-02-23T16:01:53;7.60;99.90
2999;DHT22;1509;51.964;7.628;2023-02-23T16:04:21;7.60;99.90
2999;DHT22;1509;51.964;7.628;2023-02-23T16:11:50;7.60;99.90
2999;DHT22;1509;51.964;7.628;2023-02-23T16:14:18;7.60;99.90
2999;DHT22;1509;51.964;7.628;2023-02-23T16:16:46;7.80;99.90
2999;DHT22;1509;51.964;7.628;2023-02-23T16:19:15;7.70;99.90
2999;DHT22;1509;51.964;7.628;2023-02-23T16:21:41;7.70;99.90
2999;DHT22;1509;51.964;7.628;2023-02-23T16:24:10;7.70;99.90
2999;DHT22;1509;51.964;7.628;2023-02-23T16:26:45;7.70;99.90
2999;DHT22;1509;51.964;7.628;2023-02-23T16:29:23;7.70;99.90
2999;DHT22;1509;51.964;7.628;2023-02-23T16:31:57;7.70;99.90
2999;DHT22;1509;51.964;7.628;2023-02-23T16:34:33;7.70;99.90
2999;DHT22;1509;51.964;7.628;2023-02-23T16:37:03;7.80;99.90
2999;DHT22;1509;51.964;7.628;2023-02-23T16:39:30;7.70;99.90
2999;DHT22;1509;51.964;7.628;2023-02-23T16:41:58;8.00;99.90
2999;DHT22;1509;51.964;7.628;2023-02-23T16:44:26;8.00;99.90
2999;DHT22;1509;51.964;7.628;2023-02-23T16:49:27;7.70;99.90
2999;DHT22;1509;51.964;7.628;2023-02-23T16:51:57;8.10;99.90
2999;DHT22;1509;51.964;7.628;2023-02-23T16:54:23;7.80;99.90
2999;DHT22;1509;51.964;7.628;2023-02-23T16:56:49;7.80;99.90
2999;DHT22;1509;51.964;7.628;2023-02-23T16:59:16;7.80;99.90
2999;DHT22;1509;51.964;7.628;2023-02-23T17:01:42;7.70;99.90
2999;DHT22;1509;51.964;7.628;2023-02-23T17:04:12;7.80;99.90
2999;DHT22;1509;51.964;7.628;2023-02-23T17:06:40;8.10;99.90
2999;DHT22;1509;51.964;7.628;2023-02-23T17:09:08;7.80;99.90
2999;DHT22;1509;51.964;7.628;2023-02-23T17:11:34;7.80;99.90
2999;DHT22;1509;51.964;7.628;2023-02-23T17:13:59;7.80;99.90
2999;DHT22;1509;51.964;7.628;2023-02-23T17:16:25;8.10;99.90
2999;DHT22;1509;51.964;7.628;2023-02-23T17:18:50;8.00;99.90
2999;DHT22;1509;51.964;7.628;2023-02-23T17:21:18;7.70;99.90
2999;DHT22;1509;51.964;7.628;2023-02-23T17:23:50;7.70;99.90
2999;DHT22;1509;51.964;7.628;2023-02-23T17:26:19;7.70;99.90
2999;DHT22;1509;51.964;7.628;2023-02-23T17:28:46;7.70;99.90
2999;DHT22;1509;51.964;7.628;2023-02-23T17:31:13;7.90;99.90
2999;DHT22;1509;51.964;7.628;2023-02-23T17:33:40;7.70;99.90
2999;DHT22;1509;51.964;7.628;2023-02-23T17:36:09;7.80;99.90
2999;DHT22;1509;51.964;7.628;2023-02-23T17:38:35;7.70;99.90
2999;DHT22;1509;51.964;7.628;2023-02-23T17:41:08;7.70;99.90
2999;DHT22;1509;51.964;7.628;2023-02-23T17:43:34;7.70;99.90
2999;DHT22;1509;51.964;7.628;2023-02-23T17:46:02;7.40;99.90
2999;DHT22;1509;51.964;7.628;2023-02-23T17:48:27;8.20;99.90
2999;DHT22;1509;51.964;7.628;2023-02-23T17:50:56;7.80;99.90
2999;DHT22;1509;51.964;7.628;2023-02-23T17:53:23;7.80;99.90
2999;DHT22;1509;51.964;7.628;2023-02-23T17:55:50;7.80;99.90
2999;DHT22;1509;51.964;7.628;2023-02-23T17:58:16;7.80;99.90
2999;DHT22;1509;51.964;7.628;2023-02-23T18:00:41;7.80;99.90
2999;DHT22;1509;51.964;7.628;2023-02-23T18:03:07;7.90;99.90
2999;DHT22;1509;51.964;7.628;2023-02-23T18:05:33;7.90;99.90
2999;DHT22;1509;51.964;7.628;2023-02-23T18:07:58;7.80;99.90
2999;DHT22;1509;51.964;7.628;2023-02-23T18:10:24;7.80;99.90
2999;DHT22;1509;51.964;7.628;2023-02-23T18:12:51;8.10;99.90
2999;DHT22;1509;51.964;7.628;2023-02-23T18:15:16;7.90;99.90
2999;DHT22;1509;51.964;7.628;2023-02-23T18:17:43;7.70;99.90
2999;DHT22;1509;51.964;7.628;2023-02-23T18:20:09;7.90;99.90
2999;DHT22;1509;51.964;7.628;2023-02-23T18:22:39;7.90;99.90
2999;DHT22;1509;51.964;7.628;2023-02-23T18:25:05;7.80;99.90
2999;DHT22;1509;51.964;7.628;2023-02-23T18:27:31;7.90;99.90
2999;DHT22;1509;51.964;7.628;2023-02-23T18:29:57;7.90;99.90
2999;DHT22;1509;51.964;7.628;2023-02-23T18:32:24;7.90;99.90
2999;DHT22;1509;51.964;7.628;2023-02-23T18:34:50;7.80;99.90
2999;DHT22;1509;51.964;7.628;2023-02-23T18:37:16;7.80;99.90
2999;DHT22;1509;51.964;7.628;2023-02-23T18:39:52;7.80;99.90
2999;DHT22;1509;51.964;7.628;2023-02-23T18:42:19;7.80;99.90
2999;DHT22;1509;51.964;7.628;2023-02-23T18:44:44;7.80;99.90
2999;DHT22;1509;51.964;7.628;2023-02-23T18:47:10;7.80;99.90
2999;DHT22;1509;51.964;7.628;2023-02-23T18:49:35;8.10;99.90
2999;DHT22;1509;51.964;7.628;2023-02-23T18:52:01;7.70;99.90